sensor_id;sensor_type;location;lat;lon;timestamp;temperature;humidity
43524;DHT22;29120;52.006;6.020;2023-04-06T00:02:07;4.00;74.90
43524;DHT22;29120;52.006;6.020;2023-04-06T00:04:32;4.00;74.90
43524;DHT22;29120;52.006;6.020;2023-04-06T00:06:58;3.90;74.90
43524;DHT22;29120;52.006;6.020;2023-04-06T00:09:23;3.90;75.00
43524;DHT22;29120;52.006;6.020;2023-04-06T00:11:49;3.90;75.00
43524;DHT22;29120;52.006;6.020;2023-04-06T00:14:14;3.90;75.20
43524;DHT22;29120;52.006;6.020;2023-04-06T00:16:42;3.80;75.30
43524;DHT22;29120;52.006;6.020;2023-04-06T00:19:08;3.80;75.40
43524;DHT22;29120;52.006;6.020;2023-04-06T00:21:33;3.80;75.40
43524;DHT22;29120;52.006;6.020;2023-04-06T00:23:59;3.70;75.40
43524;DHT22;29120;52.006;6.020;2023-04-06T00:26:24;3.70;75.50
43524;DHT22;29120;52.006;6.020;2023-04-06T00:28:50;3.70;75.60
43524;DHT22;29120;52.006;6.020;2023-04-06T00:31:17;3.60;75.60
43524;DHT22;29120;52.006;6.020;2023-04-06T00:33:42;3.60;75.70
43524;DHT22;29120;52.006;6.020;2023-04-06T00:36:08;3.60;75.80
43524;DHT22;29120;52.006;6.020;2023-04-06T00:38:34;3.60;75.90
43524;DHT22;29120;52.006;6.020;2023-04-06T00:40:59;3.60;76.00
43524;DHT22;29120;52.006;6.020;2023-04-06T00:43:25;3.50;76.20
43524;DHT22;29120;52.006;6.020;2023-04-06T00:45:51;3.50;76.30
43524;DHT22;29120;52.006;6.020;2023-04-06T00:48:16;3.50;76.30
43524;DHT22;29120;52.006;6.020;2023-04-06T00:50:42;3.50;76.50
43524;DHT22;29120;52.006;6.020;2023-04-06T00:53:07;3.50;76.50
43524;DHT22;29120;52.006;6.020;2023-04-06T00:55:32;3.40;76.50
43524;DHT22;29120;52.006;6.020;2023-04-06T00:57:59;3.40;76.60
43524;DHT22;29120;52.006;6.020;2023-04-06T01:00:29;3.40;76.60
43524;DHT22;29120;52.006;6.020;2023-04-06T01:02:54;3.30;76.70
43524;DHT22;29120;52.006;6.020;2023-04-06T01:05:20;3.20;76.70
43524;DHT22;29120;52.006;6.020;2023-04-06T01:07:46;3.20;76.90
43524;DHT22;29120;52.006;6.020;2023-04-06T01:10:11;3.20;77.10
43524;DHT22;29120;52.006;6.020;2023-04-06T01:12:47;3.20;77.20
43524;DHT22;29120;52.006;6.020;2023-04-06T01:15:12;3.10;77.20
43524;DHT22;29120;52.006;6.020;2023-04-06T01:17:38;3.10;77.30
43524;DHT22;29120;52.006;6.020;2023-04-06T01:20:06;3.10;77.40
43524;DHT22;29120;52.006;6.020;2023-04-06T01:22:31;3.10;77.50
43524;DHT22;29120;52.006;6.020;2023-04-06T01:24:57;3.10;77.50
43524;DHT22;29120;52.006;6.020;2023-04-06T01:27:23;3.10;77.60
43524;DHT22;29120;52.006;6.020;2023-04-06T01:29:48;3.10;77.70
43524;DHT22;29120;52.006;6.020;2023-04-06T01:32:14;3.10;77.80
43524;DHT22;29120;52.006;6.020;2023-04-06T01:34:39;3.00;77.80
43524;DHT22;29120;52.006;6.020;2023-04-06T01:37:05;3.00;77.80
43524;DHT22;29120;52.006;6.020;2023-04-06T01:39:30;3.00;77.90
43524;DHT22;29120;52.006;6.020;2023-04-06T01:41:56;3.00;78.10
43524;DHT22;29120;52.006;6.020;2023-04-06T01:44:21;2.90;78.00
43524;DHT22;29120;52.006;6.020;2023-04-06T01:46:47;2.90;78.10
43524;DHT22;29120;52.006;6.020;2023-04-06T01:49:12;2.90;78.30
43524;DHT22;29120;52.006;6.020;2023-04-06T01:51:38;2.90;78.30
43524;DHT22;29120;52.006;6.020;2023-04-06T01:54:04;2.90;78.30
43524;DHT22;29120;52.006;6.020;2023-04-06T01:56:29;2.90;78.40
43524;DHT22;29120;52.006;6.020;2023-04-06T01:58:55;2.80;78.50
43524;DHT22;29120;52.006;6.020;2023-04-06T02:01:21;2.90;78.70
43524;DHT22;29120;52.006;6.020;2023-04-06T02:03:47;2.90;78.70
43524;DHT22;29120;52.006;6.020;2023-04-06T02:06:12;2.90;78.90
43524;DHT22;29120;52.006;6.020;2023-04-06T02:08:38;2.90;78.80
43524;DHT22;29120;52.006;6.020;2023-04-06T02:11:03;2.80;78.80
43524;DHT22;29120;52.006;6.020;2023-04-06T02:13:29;2.80;79.00
43524;DHT22;29120;52.006;6.020;2023-04-06T02:15:54;2.80;79.10
43524;DHT22;29120;52.006;6.020;2023-04-06T02:18:20;2.80;79.30
43524;DHT22;29120;52.006;6.020;2023-04-06T02:20:46;2.70;79.20
43524;DHT22;29120;52.006;6.020;2023-04-06T02:23:11;2.70;79.30
43524;DHT22;29120;52.006;6.020;2023-04-06T02:25:36;2.70;79.40
43524;DHT22;29120;52.006;6.020;2023-04-06T02:28:02;2.60;79.50
43524;DHT22;29120;52.006;6.020;2023-04-06T02:30:28;2.60;79.60
43524;DHT22;29120;52.006;6.020;2023-04-06T02:32:54;2.60;79.60
43524;DHT22;29120;52.006;6.020;2023-04-06T02:35:19;2.60;79.90
43524;DHT22;29120;52.006;6.020;2023-04-06T02:37:45;2.60;79.90
43524;DHT22;29120;52.006;6.020;2023-04-06T02:40:10;2.60;80.00
43524;DHT22;29120;52.006;6.020;2023-04-06T02:42:36;2.60;80.10
43524;DHT22;29120;52.006;6.020;2023-04-06T02:45:01;2.60;80.10
43524;DHT22;29120;52.006;6.020;2023-04-06T02:47:27;2.60;80.10
43524;DHT22;29120;52.006;6.020;2023-04-06T02:49:52;2.60;80.20
43524;DHT22;29120;52.006;6.020;2023-04-06T02:52:18;2.50;80.10
43524;DHT22;29120;52.006;6.020;2023-04-06T02:54:43;2.50;80.20
43524;DHT22;29120;52.006;6.020;2023-04-06T02:57:09;2.50;80.20
43524;DHT22;29120;52.006;6.020;2023-04-06T02:59:35;2.50;80.30
43524;DHT22;29120;52.006;6.020;2023-04-06T03:02:00;2.50;80.30
43524;DHT22;29120;52.006;6.020;2023-04-06T03:04:26;2.50;80.40
43524;DHT22;29120;52.006;6.020;2023-04-06T03:06:51;2.50;80.40
43524;DHT22;29120;52.006;6.020;2023-04-06T03:09:17;2.50;80.40
43524;DHT22;29120;52.006;6.020;2023-04-06T03:11:42;2.60;80.50
43524;DHT22;29120;52.006;6.020;2023-04-06T03:14:08;2.60;80.30
43524;DHT22;29120;52.006;6.020;2023-04-06T03:16:33;2.60;80.20
43524;DHT22;29120;52.006;6.020;2023-04-06T03:18:58;2.60;80.30
43524;DHT22;29120;52.006;6.020;2023-04-06T03:21:24;2.70;80.40
43524;DHT22;29120;52.006;6.020;2023-04-06T03:23:49;2.70;80.40
43524;DHT22;29120;52.006;6.020;2023-04-06T03:26:16;2.80;80.40
43524;DHT22;29120;52.006;6.020;2023-04-06T03:28:41;2.80;80.60
43524;DHT22;29120;52.006;6.020;2023-04-06T03:31:07;2.80;80.60
43524;DHT22;29120;52.006;6.020;2023-04-06T03:33:32;2.80;80.60
43524;DHT22;29120;52.006;6.020;2023-04-06T03:35:58;2.80;80.50
43524;DHT22;29120;52.006;6.020;2023-04-06T03:38:23;2.90;80.60
43524;DHT22;29120;52.006;6.020;2023-04-06T03:40:49;2.90;80.60
43524;DHT22;29120;52.006;6.020;2023-04-06T03:43:14;2.90;80.70
43524;DHT22;29120;52.006;6.020;2023-04-06T03:45:40;2.90;80.70
43524;DHT22;29120;52.006;6.020;2023-04-06T03:48:06;2.90;80.70
43524;DHT22;29120;52.006;6.020;2023-04-06T03:50:31;2.90;80.80
43524;DHT22;29120;52.006;6.020;2023-04-06T03:52:57;3.00;80.80
43524;DHT22;29120;52.006;6.020;2023-04-06T03:55:22;3.00;80.80
43524;DHT22;29120;52.006;6.020;2023-04-06T03:57:48;3.00;80.80
43524;DHT22;29120;52.006;6.020;2023-04-06T04:00:13;3.00;80.70
43524;DHT22;29120;52.006;6.020;2023-04-06T04:02:40;3.10;80.80
43524;DHT22;29120;52.006;6.020;2023-04-06T04:05:05;3.10;80.70
43524;DHT22;29120;52.006;6.020;2023-04-06T04:07:31;3.10;80.80
43524;DHT22;29120;52.006;6.020;2023-04-06T04:09:56;3.10;80.80
43524;DHT22;29120;52.006;6.020;2023-04-06T04:12:22;3.10;80.80
43524;DHT22;29120;52.006;6.020;2023-04-06T04:14:47;3.20;80.80
43524;DHT22;29120;52.006;6.020;2023-04-06T04:17:13;3.10;80.80
43524;DHT22;29120;52.006;6.020;2023-04-06T04:19:38;3.20;80.80
43524;DHT22;29120;52.006;6.020;2023-04-06T04:22:04;3.20;80.80
43524;DHT22;29120;52.006;6.020;2023-04-06T04:24:30;3.30;80.80
43524;DHT22;29120;52.006;6.020;2023-04-06T04:26:55;3.30;80.70
43524;DHT22;29120;52.006;6.020;2023-04-06T04:29:21;3.30;80.60
43524;DHT22;29120;52.006;6.020;2023-04-06T04:31:48;3.40;80.70
43524;DHT22;29120;52.006;6.020;2023-04-06T04:34:14;3.40;80.70
43524;DHT22;29120;52.006;6.020;2023-04-06T04:36:40;3.40;80.70
43524;DHT22;29120;52.006;6.020;2023-04-06T04:39:07;3.40;80.60
43524;DHT22;29120;52.006;6.020;2023-04-06T04:41:33;3.50;80.60
43524;DHT22;29120;52.006;6.020;2023-04-06T04:43:58;3.50;80.70
43524;DHT22;29120;52.006;6.020;2023-04-06T04:46:24;3.50;80.70
43524;DHT22;29120;52.006;6.020;2023-04-06T04:48:49;3.50;80.80
43524;DHT22;29120;52.006;6.020;2023-04-06T04:51:15;3.50;80.80
43524;DHT22;29120;52.006;6.020;2023-04-06T04:53:40;3.50;80.80
43524;DHT22;29120;52.006;6.020;2023-04-06T04:56:06;3.50;80.90
43524;DHT22;29120;52.006;6.020;2023-04-06T04:58:31;3.60;80.90
43524;DHT22;29120;52.006;6.020;2023-04-06T05:00:57;3.60;80.80
43524;DHT22;29120;52.006;6.020;2023-04-06T05:03:23;3.70;80.60
43524;DHT22;29120;52.006;6.020;2023-04-06T05:05:49;3.70;80.60
43524;DHT22;29120;52.006;6.020;2023-04-06T05:08:14;3.70;80.50
43524;DHT22;29120;52.006;6.020;2023-04-06T05:10:40;3.70;80.50
43524;DHT22;29120;52.006;6.020;2023-04-06T05:13:05;3.70;80.60
43524;DHT22;29120;52.006;6.020;2023-04-06T05:15:31;3.70;80.70
43524;DHT22;29120;52.006;6.020;2023-04-06T05:17:56;3.70;80.70
43524;DHT22;29120;52.006;6.020;2023-04-06T05:20:22;3.80;81.40
43524;DHT22;29120;52.006;6.020;2023-04-06T05:22:47;3.80;80.60
43524;DHT22;29120;52.006;6.020;2023-04-06T05:25:13;3.90;80.50
43524;DHT22;29120;52.006;6.020;2023-04-06T05:27:39;4.00;80.60
43524;DHT22;29120;52.006;6.020;2023-04-06T05:30:05;4.00;80.50
43524;DHT22;29120;52.006;6.020;2023-04-06T05:32:31;4.10;80.50
43524;DHT22;29120;52.006;6.020;2023-04-06T05:34:56;4.10;80.50
43524;DHT22;29120;52.006;6.020;2023-04-06T05:37:22;4.20;80.50
43524;DHT22;29120;52.006;6.020;2023-04-06T05:39:48;4.20;80.40
43524;DHT22;29120;52.006;6.020;2023-04-06T05:42:13;4.30;80.40
43524;DHT22;29120;52.006;6.020;2023-04-06T05:44:39;4.40;80.40
43524;DHT22;29120;52.006;6.020;2023-04-06T05:47:04;4.40;80.20
43524;DHT22;29120;52.006;6.020;2023-04-06T05:49:30;4.50;80.10
43524;DHT22;29120;52.006;6.020;2023-04-06T05:51:55;4.60;80.10
43524;DHT22;29120;52.006;6.020;2023-04-06T05:54:21;4.70;79.90
43524;DHT22;29120;52.006;6.020;2023-04-06T05:56:46;4.90;79.80
43524;DHT22;29120;52.006;6.020;2023-04-06T05:59:12;5.10;79.60
43524;DHT22;29120;52.006;6.020;2023-04-06T06:01:37;5.30;79.00
43524;DHT22;29120;52.006;6.020;2023-04-06T06:04:02;5.60;78.60
43524;DHT22;29120;52.006;6.020;2023-04-06T06:06:29;5.80;78.00
43524;DHT22;29120;52.006;6.020;2023-04-06T06:08:57;6.10;77.70
43524;DHT22;29120;52.006;6.020;2023-04-06T06:11:26;6.30;77.00
43524;DHT22;29120;52.006;6.020;2023-04-06T06:13:52;6.50;76.70
43524;DHT22;29120;52.006;6.020;2023-04-06T06:16:18;6.60;75.90
43524;DHT22;29120;52.006;6.020;2023-04-06T06:18:43;6.60;75.40
43524;DHT22;29120;52.006;6.020;2023-04-06T06:21:09;6.70;75.40
43524;DHT22;29120;52.006;6.020;2023-04-06T06:23:34;6.80;75.30
43524;DHT22;29120;52.006;6.020;2023-04-06T06:26:00;7.00;74.90
43524;DHT22;29120;52.006;6.020;2023-04-06T06:28:26;7.20;74.80
43524;DHT22;29120;52.006;6.020;2023-04-06T06:30:52;7.50;74.50
43524;DHT22;29120;52.006;6.020;2023-04-06T06:33:17;7.70;74.00
43524;DHT22;29120;52.006;6.020;2023-04-06T06:35:42;8.00;73.40
43524;DHT22;29120;52.006;6.020;2023-04-06T06:38:08;8.10;73.10
43524;DHT22;29120;52.006;6.020;2023-04-06T06:40:33;8.10;72.70
43524;DHT22;29120;52.006;6.020;2023-04-06T06:42:59;8.20;72.50
43524;DHT22;29120;52.006;6.020;2023-04-06T06:45:24;8.20;71.80
43524;DHT22;29120;52.006;6.020;2023-04-06T06:47:50;8.10;72.00
43524;DHT22;29120;52.006;6.020;2023-04-06T06:50:16;8.10;72.10
43524;DHT22;29120;52.006;6.020;2023-04-06T06:52:41;8.00;71.50
43524;DHT22;29120;52.006;6.020;2023-04-06T06:55:08;7.90;71.70
43524;DHT22;29120;52.006;6.020;2023-04-06T06:57:33;8.00;71.90
43524;DHT22;29120;52.006;6.020;2023-04-06T06:59:59;8.30;71.50
43524;DHT22;29120;52.006;6.020;2023-04-06T07:02:25;8.80;71.10
43524;DHT22;29120;52.006;6.020;2023-04-06T07:04:50;9.20;69.80
43524;DHT22;29120;52.006;6.020;2023-04-06T07:07:16;9.60;68.60
43524;DHT22;29120;52.006;6.020;2023-04-06T07:09:41;9.80;67.70
43524;DHT22;29120;52.006;6.020;2023-04-06T07:12:07;9.80;66.70
43524;DHT22;29120;52.006;6.020;2023-04-06T07:14:32;9.70;64.70
43524;DHT22;29120;52.006;6.020;2023-04-06T07:16:58;9.50;63.80
43524;DHT22;29120;52.006;6.020;2023-04-06T07:19:23;9.40;64.80
43524;DHT22;29120;52.006;6.020;2023-04-06T07:21:48;9.50;65.00
43524;DHT22;29120;52.006;6.020;2023-04-06T07:24:17;9.50;65.20
43524;DHT22;29120;52.006;6.020;2023-04-06T07:26:42;9.50;65.40
43524;DHT22;29120;52.006;6.020;2023-04-06T07:29:08;9.60;65.40
43524;DHT22;29120;52.006;6.020;2023-04-06T07:31:33;9.90;65.50
43524;DHT22;29120;52.006;6.020;2023-04-06T07:34:00;10.00;65.20
43524;DHT22;29120;52.006;6.020;2023-04-06T07:36:26;10.00;65.30
43524;DHT22;29120;52.006;6.020;2023-04-06T07:38:51;10.10;65.60
43524;DHT22;29120;52.006;6.020;2023-04-06T07:41:17;10.20;65.80
43524;DHT22;29120;52.006;6.020;2023-04-06T07:43:42;10.10;65.90
43524;DHT22;29120;52.006;6.020;2023-04-06T07:46:08;10.20;65.80
43524;DHT22;29120;52.006;6.020;2023-04-06T07:48:33;10.30;65.80
43524;DHT22;29120;52.006;6.020;2023-04-06T07:51:03;10.40;65.60
43524;DHT22;29120;52.006;6.020;2023-04-06T07:53:28;10.50;65.30
43524;DHT22;29120;52.006;6.020;2023-04-06T07:55:54;10.60;65.00
43524;DHT22;29120;52.006;6.020;2023-04-06T07:58:20;10.60;63.90
43524;DHT22;29120;52.006;6.020;2023-04-06T08:00:46;10.70;64.10
43524;DHT22;29120;52.006;6.020;2023-04-06T08:03:11;10.80;64.20
43524;DHT22;29120;52.006;6.020;2023-04-06T08:05:37;10.80;64.10
43524;DHT22;29120;52.006;6.020;2023-04-06T08:08:02;10.70;63.60
43524;DHT22;29120;52.006;6.020;2023-04-06T08:10:28;10.50;64.00
43524;DHT22;29120;52.006;6.020;2023-04-06T08:12:54;10.50;64.90
43524;DHT22;29120;52.006;6.020;2023-04-06T08:15:19;10.30;64.10
43524;DHT22;29120;52.006;6.020;2023-04-06T08:17:45;10.20;64.40
43524;DHT22;29120;52.006;6.020;2023-04-06T08:20:10;10.10;64.80
43524;DHT22;29120;52.006;6.020;2023-04-06T08:22:36;10.00;64.80
43524;DHT22;29120;52.006;6.020;2023-04-06T08:25:01;10.00;65.10
43524;DHT22;29120;52.006;6.020;2023-04-06T08:27:27;9.90;65.30
43524;DHT22;29120;52.006;6.020;2023-04-06T08:29:52;10.00;65.50
43524;DHT22;29120;52.006;6.020;2023-04-06T08:32:18;9.90;65.50
43524;DHT22;29120;52.006;6.020;2023-04-06T08:34:43;9.90;65.70
43524;DHT22;29120;52.006;6.020;2023-04-06T08:37:08;10.00;65.90
43524;DHT22;29120;52.006;6.020;2023-04-06T08:39:34;10.00;65.40
43524;DHT22;29120;52.006;6.020;2023-04-06T08:42:00;9.90;65.60
43524;DHT22;29120;52.006;6.020;2023-04-06T08:44:28;9.90;65.70
43524;DHT22;29120;52.006;6.020;2023-04-06T08:46:54;9.90;66.30
43524;DHT22;29120;52.006;6.020;2023-04-06T08:49:20;10.00;65.60
43524;DHT22;29120;52.006;6.020;2023-04-06T08:51:46;10.00;65.00
43524;DHT22;29120;52.006;6.020;2023-04-06T08:54:12;10.10;65.20
43524;DHT22;29120;52.006;6.020;2023-04-06T08:56:38;10.20;65.10
43524;DHT22;29120;52.006;6.020;2023-04-06T08:59:03;10.30;65.00
43524;DHT22;29120;52.006;6.020;2023-04-06T09:01:29;10.40;65.00
43524;DHT22;29120;52.006;6.020;2023-04-06T09:03:57;10.60;64.80
43524;DHT22;29120;52.006;6.020;2023-04-06T09:06:22;10.70;64.50
43524;DHT22;29120;52.006;6.020;2023-04-06T09:08:48;10.90;64.30
43524;DHT22;29120;52.006;6.020;2023-04-06T09:11:14;11.10;64.10
43524;DHT22;29120;52.006;6.020;2023-04-06T09:13:49;11.30;63.20
43524;DHT22;29120;52.006;6.020;2023-04-06T09:16:16;11.50;63.40
43524;DHT22;29120;52.006;6.020;2023-04-06T09:18:42;11.60;63.50
43524;DHT22;29120;52.006;6.020;2023-04-06T09:21:08;11.80;63.50
43524;DHT22;29120;52.006;6.020;2023-04-06T09:23:33;11.90;62.90
43524;DHT22;29120;52.006;6.020;2023-04-06T09:26:12;12.10;63.00
43524;DHT22;29120;52.006;6.020;2023-04-06T09:31:06;12.40;61.50
43524;DHT22;29120;52.006;6.020;2023-04-06T09:33:32;12.60;61.40
43524;DHT22;29120;52.006;6.020;2023-04-06T09:35:57;12.80;59.50
43524;DHT22;29120;52.006;6.020;2023-04-06T09:38:23;12.70;58.20
43524;DHT22;29120;52.006;6.020;2023-04-06T09:40:49;12.60;58.50
43524;DHT22;29120;52.006;6.020;2023-04-06T09:43:23;12.70;59.10
43524;DHT22;29120;52.006;6.020;2023-04-06T09:45:48;12.80;59.40
43524;DHT22;29120;52.006;6.020;2023-04-06T09:48:14;12.90;58.90
43524;DHT22;29120;52.006;6.020;2023-04-06T09:50:39;12.80;58.90
43524;DHT22;29120;52.006;6.020;2023-04-06T09:53:05;12.70;58.50
43524;DHT22;29120;52.006;6.020;2023-04-06T09:55:35;12.70;58.70
43524;DHT22;29120;52.006;6.020;2023-04-06T09:58:05;12.70;58.80
43524;DHT22;29120;52.006;6.020;2023-04-06T10:00:32;12.80;59.30
43524;DHT22;29120;52.006;6.020;2023-04-06T10:07:57;13.20;57.80
43524;DHT22;29120;52.006;6.020;2023-04-06T10:10:23;13.30;57.90
43524;DHT22;29120;52.006;6.020;2023-04-06T10:12:48;13.40;57.90
43524;DHT22;29120;52.006;6.020;2023-04-06T10:15:15;13.40;58.00
43524;DHT22;29120;52.006;6.020;2023-04-06T10:17:40;13.40;57.80
43524;DHT22;29120;52.006;6.020;2023-04-06T10:20:07;13.30;58.20
43524;DHT22;29120;52.006;6.020;2023-04-06T10:22:40;13.30;58.50
43524;DHT22;29120;52.006;6.020;2023-04-06T10:25:07;13.20;58.60
43524;DHT22;29120;52.006;6.020;2023-04-06T10:27:33;13.20;59.00
43524;DHT22;29120;52.006;6.020;2023-04-06T10:30:05;13.10;59.20
43524;DHT22;29120;52.006;6.020;2023-04-06T10:32:32;13.10;59.50
43524;DHT22;29120;52.006;6.020;2023-04-06T10:35:04;13.10;59.60
43524;DHT22;29120;52.006;6.020;2023-04-06T10:37:45;13.00;59.60
43524;DHT22;29120;52.006;6.020;2023-04-06T10:40:18;13.10;59.90
43524;DHT22;29120;52.006;6.020;2023-04-06T10:42:43;13.10;59.80
43524;DHT22;29120;52.006;6.020;2023-04-06T10:45:18;13.00;59.60
43524;DHT22;29120;52.006;6.020;2023-04-06T10:47:44;13.10;59.50
43524;DHT22;29120;52.006;6.020;2023-04-06T10:50:10;12.90;59.60
43524;DHT22;29120;52.006;6.020;2023-04-06T10:52:37;12.80;59.50
43524;DHT22;29120;52.006;6.020;2023-04-06T10:55:02;12.80;59.70
43524;DHT22;29120;52.006;6.020;2023-04-06T10:57:29;12.80;59.90
43524;DHT22;29120;52.006;6.020;2023-04-06T10:59:56;12.90;60.00
43524;DHT22;29120;52.006;6.020;2023-04-06T11:02:21;13.10;60.00
43524;DHT22;29120;52.006;6.020;2023-04-06T11:04:56;13.20;59.70
43524;DHT22;29120;52.006;6.020;2023-04-06T11:07:23;13.20;59.50
43524;DHT22;29120;52.006;6.020;2023-04-06T11:09:49;13.30;59.70
43524;DHT22;29120;52.006;6.020;2023-04-06T11:12:22;13.50;60.00
43524;DHT22;29120;52.006;6.020;2023-04-06T11:14:55;13.60;59.70
43524;DHT22;29120;52.006;6.020;2023-04-06T11:17:27;13.70;59.30
43524;DHT22;29120;52.006;6.020;2023-04-06T11:19:53;13.90;59.40
43524;DHT22;29120;52.006;6.020;2023-04-06T11:22:18;14.00;59.10
43524;DHT22;29120;52.006;6.020;2023-04-06T11:24:44;14.10;59.00
43524;DHT22;29120;52.006;6.020;2023-04-06T11:27:09;14.10;59.10
43524;DHT22;29120;52.006;6.020;2023-04-06T11:29:35;14.10;59.30
43524;DHT22;29120;52.006;6.020;2023-04-06T11:32:03;13.90;59.30
43524;DHT22;29120;52.006;6.020;2023-04-06T11:34:30;13.60;59.60
43524;DHT22;29120;52.006;6.020;2023-04-06T11:36:56;13.50;60.30
43524;DHT22;29120;52.006;6.020;2023-04-06T11:39:22;13.30;60.80
43524;DHT22;29120;52.006;6.020;2023-04-06T11:41:49;13.30;61.60
43524;DHT22;29120;52.006;6.020;2023-04-06T11:44:15;13.40;62.00
43524;DHT22;29120;52.006;6.020;2023-04-06T11:46:40;13.60;61.50
43524;DHT22;29120;52.006;6.020;2023-04-06T11:49:06;13.90;60.90
43524;DHT22;29120;52.006;6.020;2023-04-06T11:51:35;13.90;60.20
43524;DHT22;29120;52.006;6.020;2023-04-06T11:54:00;13.90;61.00
43524;DHT22;29120;52.006;6.020;2023-04-06T11:56:27;13.90;61.60
43524;DHT22;29120;52.006;6.020;2023-04-06T11:58:56;13.70;62.10
43524;DHT22;29120;52.006;6.020;2023-04-06T12:01:22;13.50;63.00
43524;DHT22;29120;52.006;6.020;2023-04-06T12:03:47;13.30;64.30
43524;DHT22;29120;52.006;6.020;2023-04-06T12:06:13;13.00;65.20
43524;DHT22;29120;52.006;6.020;2023-04-06T12:08:38;12.90;65.80
43524;DHT22;29120;52.006;6.020;2023-04-06T12:11:04;12.70;67.50
43524;DHT22;29120;52.006;6.020;2023-04-06T12:13:30;12.60;68.80
43524;DHT22;29120;52.006;6.020;2023-04-06T12:15:55;12.50;69.80
43524;DHT22;29120;52.006;6.020;2023-04-06T12:18:21;12.40;71.70
43524;DHT22;29120;52.006;6.020;2023-04-06T12:20:46;12.20;73.10
43524;DHT22;29120;52.006;6.020;2023-04-06T12:23:12;12.00;74.60
43524;DHT22;29120;52.006;6.020;2023-04-06T12:25:39;11.90;75.30
43524;DHT22;29120;52.006;6.020;2023-04-06T12:28:04;11.80;75.90
43524;DHT22;29120;52.006;6.020;2023-04-06T12:30:30;11.80;76.50
43524;DHT22;29120;52.006;6.020;2023-04-06T12:32:57;11.60;76.70
43524;DHT22;29120;52.006;6.020;2023-04-06T12:35:22;11.50;78.50
43524;DHT22;29120;52.006;6.020;2023-04-06T12:37:48;11.40;80.70
43524;DHT22;29120;52.006;6.020;2023-04-06T12:40:13;11.20;82.30
43524;DHT22;29120;52.006;6.020;2023-04-06T12:42:40;11.10;84.10
43524;DHT22;29120;52.006;6.020;2023-04-06T12:45:07;11.00;85.50
43524;DHT22;29120;52.006;6.020;2023-04-06T12:47:33;10.90;86.50
43524;DHT22;29120;52.006;6.020;2023-04-06T12:49:58;10.80;88.80
43524;DHT22;29120;52.006;6.020;2023-04-06T12:52:24;10.60;89.80
43524;DHT22;29120;52.006;6.020;2023-04-06T12:54:50;10.50;90.50
43524;DHT22;29120;52.006;6.020;2023-04-06T12:57:16;10.40;91.00
43524;DHT22;29120;52.006;6.020;2023-04-06T12:59:45;10.30;91.30
43524;DHT22;29120;52.006;6.020;2023-04-06T13:02:11;10.30;91.60
43524;DHT22;29120;52.006;6.020;2023-04-06T13:04:37;10.20;92.30
43524;DHT22;29120;52.006;6.020;2023-04-06T13:07:02;10.00;92.50
43524;DHT22;29120;52.006;6.020;2023-04-06T13:09:28;9.90;93.00
43524;DHT22;29120;52.006;6.020;2023-04-06T13:11:53;9.80;93.20
43524;DHT22;29120;52.006;6.020;2023-04-06T13:14:18;9.80;94.90
43524;DHT22;29120;52.006;6.020;2023-04-06T13:16:44;9.80;95.60
43524;DHT22;29120;52.006;6.020;2023-04-06T13:19:10;9.80;96.50
43524;DHT22;29120;52.006;6.020;2023-04-06T13:21:36;9.80;97.30
43524;DHT22;29120;52.006;6.020;2023-04-06T13:24:01;9.80;97.80
43524;DHT22;29120;52.006;6.020;2023-04-06T13:26:27;9.70;98.30
43524;DHT22;29120;52.006;6.020;2023-04-06T13:28:53;9.70;98.90
43524;DHT22;29120;52.006;6.020;2023-04-06T13:31:21;9.60;99.30
43524;DHT22;29120;52.006;6.020;2023-04-06T13:33:46;9.60;99.90
43524;DHT22;29120;52.006;6.020;2023-04-06T13:36:12;9.50;99.90
43524;DHT22;29120;52.006;6.020;2023-04-06T13:38:37;9.50;99.90
43524;DHT22;29120;52.006;6.020;2023-04-06T13:41:04;9.40;99.90
43524;DHT22;29120;52.006;6.020;2023-04-06T13:43:29;9.50;99.90
43524;DHT22;29120;52.006;6.020;2023-04-06T13:45:56;9.50;99.90
43524;DHT22;29120;52.006;6.020;2023-04-06T13:48:23;9.40;99.90
43524;DHT22;29120;52.006;6.020;2023-04-06T13:50:49;9.40;99.90
43524;DHT22;29120;52.006;6.020;2023-04-06T13:53:15;9.30;99.90
43524;DHT22;29120;52.006;6.020;2023-04-06T13:55:40;9.30;99.90
43524;DHT22;29120;52.006;6.020;2023-04-06T13:58:06;9.30;99.90
43524;DHT22;29120;52.006;6.020;2023-04-06T14:00:31;9.20;99.90
43524;DHT22;29120;52.006;6.020;2023-04-06T14:02:57;9.30;99.90
43524;DHT22;29120;52.006;6.020;2023-04-06T14:05:22;9.30;99.90
43524;DHT22;29120;52.006;6.020;2023-04-06T14:07:49;9.30;99.90
43524;DHT22;29120;52.006;6.020;2023-04-06T14:10:14;9.30;99.90
43524;DHT22;29120;52.006;6.020;2023-04-06T14:12:41;9.20;99.90
43524;DHT22;29120;52.006;6.020;2023-04-06T14:15:07;9.20;99.90
43524;DHT22;29120;52.006;6.020;2023-04-06T14:17:33;9.10;99.90
43524;DHT22;29120;52.006;6.020;2023-04-06T14:19:58;9.10;99.90
43524;DHT22;29120;52.006;6.020;2023-04-06T14:22:24;9.10;99.90
43524;DHT22;29120;52.006;6.020;2023-04-06T14:24:49;9.10;99.90
43524;DHT22;29120;52.006;6.020;2023-04-06T14:27:15;9.00;99.90
43524;DHT22;29120;52.006;6.020;2023-04-06T14:29:40;9.10;99.90
43524;DHT22;29120;52.006;6.020;2023-04-06T14:32:06;9.10;99.90
43524;DHT22;29120;52.006;6.020;2023-04-06T14:34:31;9.00;99.90
43524;DHT22;29120;52.006;6.020;2023-04-06T14:36:57;9.00;99.90
43524;DHT22;29120;52.006;6.020;2023-04-06T14:39:22;9.00;99.90
43524;DHT22;29120;52.006;6.020;2023-04-06T14:41:48;9.00;99.90
43524;DHT22;29120;52.006;6.020;2023-04-06T14:44:14;9.00;99.90
43524;DHT22;29120;52.006;6.020;2023-04-06T14:46:40;9.00;99.90
43524;DHT22;29120;52.006;6.020;2023-04-06T14:49:05;8.90;99.90
43524;DHT22;29120;52.006;6.020;2023-04-06T14:51:33;9.00;99.90
43524;DHT22;29120;52.006;6.020;2023-04-06T14:53:59;8.90;99.90
43524;DHT22;29120;52.006;6.020;2023-04-06T14:56:25;8.90;99.90
43524;DHT22;29120;52.006;6.020;2023-04-06T14:58:50;8.80;99.90
43524;DHT22;29120;52.006;6.020;2023-04-06T15:01:17;8.80;99.90
43524;DHT22;29120;52.006;6.020;2023-04-06T15:03:43;8.70;99.90
43524;DHT22;29120;52.006;6.020;2023-04-06T15:06:11;8.70;99.90
43524;DHT22;29120;52.006;6.020;2023-04-06T15:08:38;8.60;99.90
43524;DHT22;29120;52.006;6.020;2023-04-06T15:11:04;8.60;99.90
43524;DHT22;29120;52.006;6.020;2023-04-06T15:13:29;8.50;99.90
43524;DHT22;29120;52.006;6.020;2023-04-06T15:15:55;8.50;99.90
43524;DHT22;29120;52.006;6.020;2023-04-06T15:18:20;8.40;99.90
43524;DHT22;29120;52.006;6.020;2023-04-06T15:20:46;8.40;99.90
43524;DHT22;29120;52.006;6.020;2023-04-06T15:23:11;8.40;99.90
43524;DHT22;29120;52.006;6.020;2023-04-06T15:25:38;8.40;99.90
43524;DHT22;29120;52.006;6.020;2023-04-06T15:28:06;8.40;99.90
43524;DHT22;29120;52.006;6.020;2023-04-06T15:30:32;8.40;99.90
43524;DHT22;29120;52.006;6.020;2023-04-06T15:32:58;8.40;99.90
43524;DHT22;29120;52.006;6.020;2023-04-06T15:35:26;8.40;99.90
43524;DHT22;29120;52.006;6.020;2023-04-06T15:37:52;8.40;99.90
43524;DHT22;29120;52.006;6.020;2023-04-06T15:40:18;8.30;99.90